1991 KELVIN (1991055S12142)


On this page: IBTrACS data - Map and Plots - Positions - Intensities - Original source data

Summary

Start Feb 24
End Mar 6
Basin SP
LMI 55 kt
Sources jtwc_sh
bom
wellington
neumann
In WMO? Yes
Previous storm 1991 DEBRA (SI)
Previous in basin 1991 DAPHNE (SP)
Concurrent storms 1991 DAPHNE (SP)
1991 DEBRA (SI)
1991 KELVIN (SP)
1991 ELMA (SI)
1991 SHARON (WP)
1991 HSK1691 (SP)
Next in basin 1991 HSK1691 (SP)
Next storm 1991 ELMA (SI)

top of page IBTrACS Data: File Access

top of page HURSAT Data: File Access

Image of storm

top of page Plots:

Map of storm track will not appear if FTP is down
Time series of cyclone Maximum Sustained Wind will not appear if FTP is down
Time series of cyclone Minimum Central Pressure will not appear if FTP is down

top of page Track Data:Position

jtwc_sh bom wellington neumann
Date Lat Lon Lat Lon Lat Lon Lat Lon
1991-02-24 06:00:00 -11.7 141.9
1991-02-24 12:00:00 -12.0 145.0 -12.4 143.8 -12.0 145.0
1991-02-24 18:00:00 -13.3 146.5 -14.1 146.9 -13.3 146.5
1991-02-25 00:00:00 -14.4 147.9 -14.3 149.5 -14.3 149.4 -14.4 147.9
1991-02-25 06:00:00 -15.3 149.1 -15.5 149.4 -15.5 149.4 -15.3 149.1
1991-02-25 12:00:00 -16.0 150.0 -16.6 150.6 -16.6 150.6 -16.0 150.0
1991-02-25 18:00:00 -16.5 150.5 -16.5 150.8 -16.5 150.8 -16.5 150.5
1991-02-26 00:00:00 -16.8 150.8 -17.0 151.3 -17.0 151.0 -16.8 150.8
1991-02-26 06:00:00 -17.3 150.8 -17.6 151.5 -17.6 151.5 -17.3 150.8
1991-02-26 12:00:00 -17.5 150.4 -16.8 150.8 -16.8 150.8 -17.5 150.4
1991-02-26 18:00:00 -17.9 150.0 -16.5 150.4 -16.5 150.4 -17.9 150.0
1991-02-27 00:00:00 -16.3 150.0 -16.2 150.1 -16.2 150.1 -16.3 150.0
1991-02-27 06:00:00 -15.9 150.2 -16.0 150.5 -16.0 150.5 -15.9 150.2
1991-02-27 12:00:00 -15.7 150.3 -15.5 150.4 -15.5 150.4 -15.7 150.3
1991-02-27 18:00:00 -15.5 150.5 -15.0 150.7 -15.0 150.7 -15.5 150.5
1991-02-28 00:00:00 -15.4 150.6 -15.2 150.7 -15.2 150.7 -15.4 150.6
1991-02-28 06:00:00 -15.5 150.8 -15.4 149.8 -15.4 149.8 -15.5 150.8
1991-02-28 12:00:00 -15.5 150.8 -15.4 149.8 -15.4 149.8 -15.5 150.8
1991-02-28 18:00:00 -15.5 150.4 -15.4 149.8 -15.4 149.8 -15.5 150.4
1991-03-01 00:00:00 -15.5 150.0 -15.6 150.2 -15.6 150.2 -15.5 150.0
1991-03-01 06:00:00 -15.3 149.7 -15.3 149.7 -15.3 149.7 -15.3 149.7
1991-03-01 12:00:00 -15.1 149.7 -15.2 149.3 -15.2 149.3 -15.1 149.7
1991-03-01 18:00:00 -15.0 150.0 -15.1 149.6 -15.1 149.6 -15.0 150.0
1991-03-02 00:00:00 -15.2 150.1 -15.1 150.1 -15.1 150.0 -15.2 150.1
1991-03-02 06:00:00 -15.3 150.1 -15.0 150.1 -15.0 150.1 -15.3 150.0
jtwc_sh bom wellington neumann
1991-03-02 12:00:00 -15.2 149.9 -15.1 150.2 -15.1 150.2 -15.2 149.9
1991-03-02 18:00:00 -14.9 149.8 -15.1 150.2 -15.1 150.2 -14.9 149.8
1991-03-03 00:00:00 -14.7 150.0 -14.7 150.4 -14.7 150.4 -14.7 150.0
1991-03-03 06:00:00 -14.5 150.2 -14.5 150.3 -14.5 150.3 -14.5 150.2
1991-03-03 12:00:00 -14.4 150.4 -14.4 150.4 -14.4 150.4 -14.4 150.4
1991-03-03 18:00:00 -14.2 150.3 -14.5 150.4 -14.4 150.3 -14.2 150.3
1991-03-04 00:00:00 -14.1 150.2 -14.2 150.2 -14.2 150.2 -14.1 150.2
1991-03-04 06:00:00 -14.0 149.9 -15.0 150.0 -14.0 150.0 -14.0 149.9
1991-03-04 12:00:00 -13.9 149.7 -13.9 149.9 -13.9 149.9 -13.9 149.7
1991-03-04 18:00:00 -13.8 149.5 -13.9 149.9 -13.9 149.9 -13.8 149.5
1991-03-05 00:00:00 -13.6 149.4 -13.8 149.8 -13.8 149.8 -13.6 149.4
1991-03-05 06:00:00 -13.4 149.4 -13.7 149.5 -13.7 149.5 -13.4 149.4
1991-03-05 12:00:00 -13.3 149.5 -14.0 149.8 -14.0 149.8 -13.3 149.5
1991-03-05 18:00:00 -13.2 149.8 -14.7 150.0 -14.1 150.0 -13.2 149.8
1991-03-06 00:00:00 -13.2 150.1 -14.2 150.2 -13.2 150.1
1991-03-06 06:00:00 -13.2 150.7 -13.2 150.7
1991-03-06 12:00:00 -12.8 150.9 -12.8 150.9

top of pageTrack Data:Intensity

jtwc_sh bom wellington neumann
Date Wind Pres Wind Pres Wind Pres Wind Pres
1991-02-24 06:00:00 31. 999.
1991-02-24 12:00:00 25. 31. 999. 25.
1991-02-24 18:00:00 25. 31. 1000. 25.
1991-02-25 00:00:00 35. 33. 1000. 30. 997. 35.
1991-02-25 06:00:00 45. 41. 993. 35. 993. 45.
1991-02-25 12:00:00 45. 54. 985. 50. 985. 45.
1991-02-25 18:00:00 55. 54. 985. 50. 985. 55.
1991-02-26 00:00:00 45. 54. 985. 50. 985. 45.
1991-02-26 06:00:00 45. 54. 984. 50. 984. 45.
1991-02-26 12:00:00 45. 54. 984. 50. 983. 45.
1991-02-26 18:00:00 50. 54. 980. 55. 980. 50.
1991-02-27 00:00:00 50. 54. 980. 55. 980. 50.
1991-02-27 06:00:00 45. 54. 980. 55. 980. 45.
1991-02-27 12:00:00 45. 54. 983. 50. 983. 45.
1991-02-27 18:00:00 45. 51. 983. 50. 983. 45.
1991-02-28 00:00:00 45. 51. 983. 50. 983. 45.
1991-02-28 06:00:00 45. 51. 985. 50. 985. 45.
1991-02-28 12:00:00 45. 51. 985. 50. 985. 45.
1991-02-28 18:00:00 35. 51. 985. 50. 985. 35.
1991-03-01 00:00:00 35. 51. 985. 45. 986. 35.
1991-03-01 06:00:00 35. 45. 987. 45. 987. 35.
1991-03-01 12:00:00 35. 41. 990. 40. 990. 35.
1991-03-01 18:00:00 35. 41. 992. 35. 992. 35.
1991-03-02 00:00:00 35. 41. 994. 35. 994. 35.
1991-03-02 06:00:00 40. 41. 994. 35. 994. 40.
jtwc_sh bom wellington neumann
1991-03-02 12:00:00 40. 41. 994. 35. 994. 40.
1991-03-02 18:00:00 40. 41. 994. 35. 994. 40.
1991-03-03 00:00:00 45. 45. 993. 35. 993. 45.
1991-03-03 06:00:00 45. 54. 983. 50. 983. 45.
1991-03-03 12:00:00 45. 54. 983. 50. 983. 45.
1991-03-03 18:00:00 45. 54. 983. 50. 983. 45.
1991-03-04 00:00:00 45. 54. 983. 50. 983. 45.
1991-03-04 06:00:00 45. 54. 983. 50. 983. 45.
1991-03-04 12:00:00 45. 54. 983. 50. 983. 45.
1991-03-04 18:00:00 35. 45. 988. 40. 988. 35.
1991-03-05 00:00:00 35. 45. 990. 40. 990. 35.
1991-03-05 06:00:00 35. 45. 992. 35. 992. 35.
1991-03-05 12:00:00 35. 41. 992. 35. 992. 35.
1991-03-05 18:00:00 35. 41. 996. 30. 996. 35.
1991-03-06 00:00:00 30. 25. 998. 30.
1991-03-06 06:00:00 30. 30.
1991-03-06 12:00:00 25. 25.

top of page Links to source data

Source Source file Format
jtwc_sh bsh131991.txt ATCF
bom IDCKMSTM0S.csv:Line=18146:KELVIN CSV file (from Excel file)
wellington TC_BT_1967_2006.csv:Line=3778:KELVIN Text table
neumann tracks.sh:Storm=912:KELVIN:BSH131991:JTWC&NZeal19010 HURDAT